MAD weather

Adolfo Suárez Madrid–Barajas Airport
Madrid, Madrid, Spain

Public forecast

Using degrees Celsius for public forecast. Weather courtesy of forecast.io.

METAR (pilot weather report)

Retrieved 2017/04/27 01:00 UTC (7 minutes ago):

LEMD 270100Z 01009KT 310V070 9999 BKN060 06/M00 Q1011 NOSIG

TAF (pilot weather forecast)

Forecast is more than 12 hours old.

Retrieved 2017/04/26 00:27 UTC (1 day ago):

TAF LEMD 262300Z 2700/2806 04012KT 9999 FEW040 BKN050 TX17/2716Z TN02/2806Z TEMPO 2700/2713 04015G25KT PROB30 TEMPO 2702/2709 RA PROB40 TEMPO 2713/2719 VRB05KT